Terminal Aerodrome Forecast
Issued by NWS Jackson, MS

Home | Current Version | Previous Version | Text Only | Print | Product List | Glossary On
Versions: 1 2 3 4 5 6 7 8 9 10 11 12 13 14 15
773
FTUS44 KMEG 280530
TAFTUP
TAF
KTUP 280530Z 2806/2906 07003KT P6SM SCT250
     FM280900 15006KT P6SM FEW015
     FM281200 15008KT P6SM OVC250
     FM281400 20015G21KT P6SM OVC015
     FM282300 20012G18KT P6SM OVC050
     FM290400 19012KT P6SM BKN025=

USA.gov is the U.S. government's official web portal to all federal, state and local government web resources and services.